ITY1170 LICA-LIRF
Flight info
| Callsign | ITY1170 |
|---|---|
| Flight time | N/A |
| Altitude | 34000 |
| Route | ARBUM DCT EVINO DCT SOR DCT TEA DCT SIPRO/N0390F180 Z803 LAT |
| Aircraft | A320/M-SDE3FGHIRWY/LB1 |
Departure
| Time | 2026-05-08 22:19 |
|---|---|
| Airport | Lamezia Terme Sant'Eufemia International Airport (LICA) |
Arrival
| Time | N/A |
|---|---|
| Airport | Rome–Fiumicino Leonardo da Vinci International Airport (LIRF) |
| Time | Latitude | Longitude | Altitude | Speed | Heading |
|---|---|---|---|---|---|
| 2026-05-08 22:06 | 38.90867 | 16.24529 | 32 ft | 0 kts | 47° |
| 2026-05-08 22:13 | 38.90867 | 16.24538 | 32 ft | 4 kts | 90° |
| 2026-05-08 22:13 | 38.90849 | 16.24543 | 31 ft | 2 kts | 189° |
| 2026-05-08 22:14 | 38.90836 | 16.24540 | 32 ft | 5 kts | 189° |
| 2026-05-08 22:14 | 38.90789 | 16.24557 | 32 ft | 9 kts | 142° |
| 2026-05-08 22:14 | 38.90722 | 16.24555 | 30 ft | 10 kts | 251° |
| 2026-05-08 22:14 | 38.90736 | 16.24455 | 32 ft | 15 kts | 282° |
| 2026-05-08 22:15 | 38.90754 | 16.24333 | 31 ft | 13 kts | 280° |
| 2026-05-08 22:15 | 38.90767 | 16.24207 | 32 ft | 19 kts | 277° |
| 2026-05-08 22:15 | 38.90787 | 16.24018 | 32 ft | 22 kts | 279° |
| 2026-05-08 22:15 | 38.90814 | 16.23817 | 32 ft | 23 kts | 278° |
| 2026-05-08 22:16 | 38.90837 | 16.23605 | 32 ft | 25 kts | 278° |
| 2026-05-08 22:16 | 38.90862 | 16.23382 | 32 ft | 26 kts | 278° |
| 2026-05-08 22:16 | 38.90875 | 16.23148 | 32 ft | 27 kts | 260° |
| 2026-05-08 22:16 | 38.90810 | 16.22975 | 32 ft | 12 kts | 233° |
| 2026-05-08 22:17 | 38.90757 | 16.22914 | 33 ft | 7 kts | 176° |
| 2026-05-08 22:17 | 38.90714 | 16.22908 | 33 ft | 6 kts | 200° |
| 2026-05-08 22:17 | 38.90712 | 16.22907 | 33 ft | 0 kts | 201° |
| 2026-05-08 22:17 | 38.90708 | 16.22907 | 33 ft | 3 kts | 186° |
| 2026-05-08 22:18 | 38.90694 | 16.22936 | 33 ft | 5 kts | 107° |
| 2026-05-08 22:18 | 38.90687 | 16.22980 | 33 ft | 5 kts | 99° |
| 2026-05-08 22:18 | 38.90665 | 16.23166 | 38 ft | 53 kts | 98° |
| 2026-05-08 22:18 | 38.90576 | 16.23915 | 30 ft | 117 kts | 98° |
| 2026-05-08 22:19 | 38.90426 | 16.25177 | 39 ft | 166 kts | 99° |
| 2026-05-08 22:19 | 38.90242 | 16.26709 | 473 ft | 174 kts | 99° |
| 2026-05-08 22:19 | 38.90047 | 16.28239 | 1173 ft | 172 kts | 99° |
| 2026-05-08 22:19 | 38.89848 | 16.29744 | 1932 ft | 169 kts | 99° |
| 2026-05-08 22:20 | 38.89647 | 16.31217 | 2634 ft | 166 kts | 101° |
| 2026-05-08 22:20 | 38.89434 | 16.32724 | 3065 ft | 180 kts | 101° |
| 2026-05-08 22:20 | 38.89168 | 16.34392 | 3398 ft | 199 kts | 110° |
| 2026-05-08 22:20 | 38.88365 | 16.35782 | 3900 ft | 203 kts | 151° |
| 2026-05-08 22:21 | 38.86994 | 16.36185 | 4436 ft | 206 kts | 192° |
| 2026-05-08 22:21 | 38.85767 | 16.35364 | 5120 ft | 200 kts | 231° |
| 2026-05-08 22:21 | 38.85231 | 16.33739 | 5676 ft | 207 kts | 262° |
| 2026-05-08 22:21 | 38.85300 | 16.31834 | 6136 ft | 219 kts | 286° |
| 2026-05-08 22:22 | 38.86041 | 16.30002 | 6471 ft | 247 kts | 307° |
| 2026-05-08 22:22 | 38.87303 | 16.28370 | 6868 ft | 269 kts | 317° |
| 2026-05-08 22:22 | 38.88838 | 16.26898 | 7566 ft | 276 kts | 322° |
| 2026-05-08 22:22 | 38.90429 | 16.25488 | 8384 ft | 280 kts | 323° |
| 2026-05-08 22:23 | 38.92039 | 16.24063 | 9231 ft | 280 kts | 320° |
| 2026-05-08 22:23 | 38.93508 | 16.22426 | 10079 ft | 281 kts | 313° |
| 2026-05-08 22:23 | 38.94903 | 16.20606 | 10620 ft | 292 kts | 310° |
| 2026-05-08 22:23 | 38.96330 | 16.18655 | 10855 ft | 315 kts | 310° |
| 2026-05-08 22:24 | 38.97895 | 16.16556 | 11169 ft | 333 kts | 311° |
| 2026-05-08 22:24 | 38.99549 | 16.14424 | 11798 ft | 340 kts | 312° |
| 2026-05-08 22:24 | 39.01266 | 16.12294 | 12434 ft | 347 kts | 313° |
| 2026-05-08 22:24 | 39.03054 | 16.10127 | 12916 ft | 357 kts | 313° |
| 2026-05-08 22:25 | 39.04883 | 16.07939 | 13569 ft | 361 kts | 313° |
| 2026-05-08 22:25 | 39.06736 | 16.05735 | 14221 ft | 364 kts | 313° |
| 2026-05-08 22:25 | 39.08600 | 16.03515 | 14814 ft | 367 kts | 313° |
| 2026-05-08 22:25 | 39.10476 | 16.01271 | 15405 ft | 370 kts | 313° |
| 2026-05-08 22:26 | 39.12365 | 15.99001 | 16001 ft | 373 kts | 313° |
| 2026-05-08 22:26 | 39.14267 | 15.96708 | 16602 ft | 375 kts | 313° |
| 2026-05-08 22:26 | 39.16155 | 15.94427 | 17186 ft | 378 kts | 312° |
| 2026-05-08 22:26 | 39.18077 | 15.92100 | 17764 ft | 382 kts | 312° |
| 2026-05-08 22:27 | 39.20023 | 15.89742 | 18345 ft | 385 kts | 312° |
| 2026-05-08 22:27 | 39.21981 | 15.87370 | 18865 ft | 388 kts | 312° |
| 2026-05-08 22:27 | 39.23958 | 15.84976 | 19374 ft | 390 kts | 312° |
| 2026-05-08 22:27 | 39.25942 | 15.82574 | 19870 ft | 393 kts | 312° |
| 2026-05-08 22:28 | 39.27942 | 15.80151 | 20365 ft | 395 kts | 312° |
| 2026-05-08 22:28 | 39.29992 | 15.77764 | 20849 ft | 398 kts | 314° |
| 2026-05-08 22:28 | 39.32100 | 15.75424 | 21323 ft | 401 kts | 315° |
| 2026-05-08 22:28 | 39.34245 | 15.73099 | 21779 ft | 404 kts | 315° |
| 2026-05-08 22:29 | 39.36417 | 15.70764 | 22234 ft | 406 kts | 315° |
| 2026-05-08 22:29 | 39.38592 | 15.68416 | 22678 ft | 408 kts | 315° |
| 2026-05-08 22:29 | 39.40772 | 15.66046 | 23103 ft | 410 kts | 315° |
| 2026-05-08 22:29 | 39.42958 | 15.63649 | 23519 ft | 413 kts | 314° |
| 2026-05-08 22:30 | 39.45148 | 15.61235 | 23870 ft | 415 kts | 314° |
| 2026-05-08 22:30 | 39.47318 | 15.58834 | 24201 ft | 417 kts | 314° |
| 2026-05-08 22:30 | 39.49530 | 15.56375 | 24531 ft | 419 kts | 314° |
| 2026-05-08 22:30 | 39.51743 | 15.53908 | 24848 ft | 421 kts | 314° |
| 2026-05-08 22:31 | 39.53977 | 15.51421 | 25165 ft | 423 kts | 314° |
| 2026-05-08 22:31 | 39.56211 | 15.48935 | 25478 ft | 425 kts | 314° |
| 2026-05-08 22:31 | 39.58466 | 15.46431 | 25780 ft | 427 kts | 314° |
| 2026-05-08 22:31 | 39.60731 | 15.43919 | 26082 ft | 429 kts | 314° |
| 2026-05-08 22:32 | 39.62976 | 15.41429 | 26373 ft | 431 kts | 314° |
| 2026-05-08 22:32 | 39.65261 | 15.38888 | 26660 ft | 433 kts | 314° |
| 2026-05-08 22:32 | 39.67543 | 15.36343 | 26947 ft | 434 kts | 314° |
| 2026-05-08 22:32 | 39.69841 | 15.33777 | 27200 ft | 436 kts | 314° |
| 2026-05-08 22:33 | 39.72144 | 15.31204 | 27461 ft | 438 kts | 314° |
| 2026-05-08 22:33 | 39.74465 | 15.28615 | 27721 ft | 440 kts | 314° |
| 2026-05-08 22:33 | 39.76792 | 15.26021 | 27969 ft | 441 kts | 314° |
| 2026-05-08 22:33 | 39.79125 | 15.23415 | 28202 ft | 443 kts | 314° |
| 2026-05-08 22:34 | 39.81466 | 15.20795 | 28428 ft | 445 kts | 314° |
| 2026-05-08 22:34 | 39.83812 | 15.18171 | 28735 ft | 444 kts | 314° |
| 2026-05-08 22:34 | 39.86153 | 15.15550 | 29068 ft | 443 kts | 314° |
| 2026-05-08 22:34 | 39.88487 | 15.12931 | 29394 ft | 443 kts | 314° |
| 2026-05-08 22:35 | 39.90816 | 15.10317 | 29715 ft | 442 kts | 313° |
| 2026-05-08 22:35 | 39.93145 | 15.07705 | 30047 ft | 442 kts | 313° |
| 2026-05-08 22:35 | 39.95471 | 15.05092 | 30339 ft | 441 kts | 313° |
| 2026-05-08 22:35 | 39.97765 | 15.02509 | 30614 ft | 440 kts | 313° |
| 2026-05-08 22:36 | 40.00085 | 14.99895 | 30900 ft | 440 kts | 313° |
| 2026-05-08 22:36 | 40.02391 | 14.97291 | 31187 ft | 439 kts | 313° |
| 2026-05-08 22:36 | 40.04699 | 14.94682 | 31490 ft | 438 kts | 313° |
| 2026-05-08 22:36 | 40.06995 | 14.92083 | 31776 ft | 437 kts | 313° |
| 2026-05-08 22:37 | 40.09285 | 14.89493 | 32068 ft | 436 kts | 313° |
| 2026-05-08 22:37 | 40.11578 | 14.86898 | 32370 ft | 434 kts | 313° |
| 2026-05-08 22:37 | 40.13861 | 14.84314 | 32677 ft | 433 kts | 312° |
| 2026-05-08 22:37 | 40.16139 | 14.81731 | 32966 ft | 432 kts | 312° |
| 2026-05-08 22:38 | 40.18404 | 14.79155 | 33261 ft | 431 kts | 312° |
| 2026-05-08 22:38 | 40.20637 | 14.76612 | 33557 ft | 430 kts | 312° |
| 2026-05-08 22:38 | 40.22888 | 14.74042 | 33855 ft | 429 kts | 312° |
| 2026-05-08 22:38 | 40.25138 | 14.71471 | 34038 ft | 429 kts | 312° |
| 2026-05-08 22:39 | 40.27397 | 14.68890 | 34078 ft | 431 kts | 312° |
| 2026-05-08 22:39 | 40.31933 | 14.63727 | 34075 ft | 433 kts | 312° |
| 2026-05-08 22:40 | 40.36481 | 14.58542 | 34069 ft | 433 kts | 312° |
| 2026-05-08 22:40 | 40.41021 | 14.53332 | 34075 ft | 434 kts | 311° |
| 2026-05-08 22:41 | 40.45567 | 14.48101 | 34060 ft | 435 kts | 312° |
| 2026-05-08 22:41 | 40.50095 | 14.42895 | 34062 ft | 435 kts | 312° |
| 2026-05-08 22:42 | 40.54648 | 14.37658 | 34066 ft | 435 kts | 312° |
| 2026-05-08 22:42 | 40.59600 | 14.32964 | 34061 ft | 448 kts | 326° |
| 2026-05-08 22:43 | 40.65442 | 14.29860 | 34056 ft | 455 kts | 332° |
| 2026-05-08 22:43 | 40.71326 | 14.26908 | 34053 ft | 455 kts | 332° |
| 2026-05-08 22:44 | 40.77241 | 14.23911 | 34049 ft | 455 kts | 332° |
| 2026-05-08 22:44 | 40.83160 | 14.20899 | 34051 ft | 456 kts | 332° |
| 2026-05-08 22:45 | 40.89084 | 14.17886 | 34048 ft | 456 kts | 332° |
| 2026-05-08 22:45 | 40.95021 | 14.14860 | 34056 ft | 457 kts | 332° |
| 2026-05-08 22:46 | 41.00927 | 14.11845 | 34053 ft | 457 kts | 332° |
| 2026-05-08 22:46 | 41.06862 | 14.08803 | 34061 ft | 457 kts | 332° |
| 2026-05-08 22:47 | 41.12775 | 14.05770 | 34066 ft | 457 kts | 332° |
| 2026-05-08 22:47 | 41.18732 | 14.02711 | 34072 ft | 457 kts | 332° |
| 2026-05-08 22:48 | 41.24647 | 13.99641 | 34074 ft | 454 kts | 328° |
| 2026-05-08 22:48 | 41.29828 | 13.95277 | 34075 ft | 436 kts | 311° |
| 2026-05-08 22:49 | 41.33699 | 13.89293 | 34097 ft | 422 kts | 298° |
| 2026-05-08 22:49 | 41.38666 | 13.79644 | 34101 ft | 420 kts | 298° |
| 2026-05-08 22:50 | 41.41970 | 13.73212 | 34102 ft | 419 kts | 298° |
| 2026-05-08 22:50 | 41.44591 | 13.66417 | 34103 ft | 407 kts | 283° |
| 2026-05-08 22:51 | 41.45739 | 13.59116 | 34097 ft | 402 kts | 275° |
| 2026-05-08 22:51 | 41.46666 | 13.51778 | 34091 ft | 401 kts | 275° |
| 2026-05-08 22:52 | 41.47600 | 13.44474 | 34088 ft | 401 kts | 276° |
| 2026-05-08 22:52 | 41.48530 | 13.37121 | 34088 ft | 402 kts | 275° |
| 2026-05-08 22:53 | 41.49450 | 13.29767 | 34091 ft | 402 kts | 275° |
| 2026-05-08 22:53 | 41.50359 | 13.22418 | 34083 ft | 402 kts | 275° |
| 2026-05-08 22:54 | 41.51114 | 13.16293 | 34087 ft | 402 kts | 275° |
| 2026-05-08 22:54 | 41.52029 | 13.08884 | 34084 ft | 402 kts | 275° |
| 2026-05-08 22:55 | 41.52474 | 13.05301 | 34057 ft | 389 kts | 275° |
| 2026-05-08 22:55 | 41.52910 | 13.01788 | 33753 ft | 380 kts | 275° |
| 2026-05-08 22:55 | 41.53334 | 12.98335 | 33275 ft | 375 kts | 275° |
| 2026-05-08 22:55 | 41.53770 | 12.94898 | 32735 ft | 374 kts | 279° |
| 2026-05-08 22:56 | 41.54715 | 12.91641 | 32220 ft | 382 kts | 296° |
| 2026-05-08 22:56 | 41.56419 | 12.88886 | 31683 ft | 390 kts | 311° |
| 2026-05-08 22:56 | 41.58405 | 12.86414 | 31138 ft | 390 kts | 311° |
| 2026-05-08 22:56 | 41.60397 | 12.83947 | 30648 ft | 388 kts | 312° |
| 2026-05-08 22:57 | 41.62338 | 12.81543 | 30184 ft | 386 kts | 312° |
| 2026-05-08 22:57 | 41.64322 | 12.79073 | 29643 ft | 384 kts | 312° |
| 2026-05-08 22:57 | 41.66102 | 12.76848 | 29174 ft | 382 kts | 312° |
| 2026-05-08 22:57 | 41.68041 | 12.74418 | 28673 ft | 380 kts | 312° |
| 2026-05-08 22:58 | 41.69966 | 12.72007 | 28185 ft | 378 kts | 312° |
| 2026-05-08 22:58 | 41.71880 | 12.69611 | 27712 ft | 376 kts | 313° |
| 2026-05-08 22:58 | 41.73780 | 12.67230 | 27247 ft | 374 kts | 313° |
| 2026-05-08 22:58 | 41.75652 | 12.64881 | 26867 ft | 370 kts | 313° |
| 2026-05-08 22:59 | 41.77511 | 12.62543 | 26611 ft | 362 kts | 313° |
| 2026-05-08 22:59 | 41.79322 | 12.60262 | 26362 ft | 355 kts | 313° |
| 2026-05-08 22:59 | 41.81146 | 12.58071 | 26112 ft | 350 kts | 321° |
| 2026-05-08 22:59 | 41.83315 | 12.56625 | 25862 ft | 350 kts | 341° |
| 2026-05-08 23:00 | 41.85716 | 12.56276 | 25726 ft | 347 kts | 1° |
| 2026-05-08 23:00 | 41.88069 | 12.57002 | 25323 ft | 351 kts | 22° |
| 2026-05-08 23:00 | 41.90096 | 12.58788 | 24997 ft | 349 kts | 44° |
| 2026-05-08 23:00 | 41.91551 | 12.61356 | 24689 ft | 345 kts | 64° |
| 2026-05-08 23:01 | 41.92291 | 12.64377 | 24386 ft | 339 kts | 85° |
| 2026-05-08 23:01 | 41.92263 | 12.67501 | 24091 ft | 332 kts | 104° |
| 2026-05-08 23:01 | 41.91513 | 12.70384 | 23788 ft | 325 kts | 123° |